Archival Weather

Al Ahsa

Al Ahsa, Saudi Arabia (OEAH)

Report from: Friday, May 26, 2023 3:00 PM +03
Current time: Monday, July 22, 2024 1:39 PM +03

Current weather – Weather history – Daily summaries
Weather forecast

Temperature43.0°C (109.4°F)
Heat index40.1°C (104.3°F)
Dew point5.0°C (41.0°F)
Winds 6 kts (3.1 m/s, 6.9 mph) West-Northwest (290°)
Clouds Sky clear
Altimeter29.71 in.Hg (1006 mB)
Relative humidity10 %
Density altitude3,500 ft. (1,067 m)
Remarks Ceiling and visibility OK
No significant changes expected in the next two hours
Flight conditions Visual Meteorological Conditions
Raw dataOEAH 261200Z 29006KT CAVOK 43/05 Q1006 NOSIG
An error has occurred. This application may no longer respond until reloaded. Reload 🗙